createdAt,value
2023-04-16T00:01:32.162Z,99901.41
2023-04-16T00:03:37.950Z,99902.25
2023-04-16T00:05:43.266Z,99900.14
2023-04-16T00:07:48.462Z,99904.32
2023-04-16T00:09:53.576Z,99903.38
2023-04-16T00:11:58.656Z,99902.36
2023-04-16T00:14:03.716Z,99909.83
2023-04-16T00:16:08.798Z,99910.14
2023-04-16T00:18:13.808Z,99911.19
2023-04-16T00:20:18.797Z,99910.31
2023-04-16T00:22:23.770Z,99911.54
2023-04-16T00:24:28.786Z,99909.83
2023-04-16T00:26:33.761Z,99917.23
2023-04-16T00:28:38.892Z,99912.11
2023-04-16T00:30:43.929Z,99909.8
2023-04-16T00:32:49.080Z,99910.7
2023-04-16T00:34:54.133Z,99910.21
2023-04-16T00:36:59.135Z,99906.44
2023-04-16T00:39:04.211Z,99908
2023-04-16T00:41:09.333Z,99910.85
2023-04-16T00:43:14.361Z,99914.52
2023-04-16T00:45:19.334Z,99911.31
2023-04-16T00:47:24.412Z,99918.04
2023-04-16T00:49:29.508Z,99916.39
2023-04-16T00:51:34.471Z,99918.25
2023-04-16T00:53:39.579Z,99917.95
2023-04-16T00:55:44.567Z,99915.98
2023-04-16T00:57:49.619Z,99917.38
2023-04-16T00:59:54.612Z,99915.38
2023-04-16T01:01:59.941Z,99909.64
2023-04-16T01:04:05.483Z,99912.16
2023-04-16T01:06:10.707Z,99910.01
2023-04-16T01:08:15.649Z,99908.15
2023-04-16T01:10:20.678Z,99908.3
2023-04-16T01:12:25.659Z,99908.75
2023-04-16T01:14:30.689Z,99913.95
2023-04-16T01:16:35.694Z,99912.22
2023-04-16T01:18:40.715Z,99914.78
2023-04-16T01:20:45.755Z,99921.95
2023-04-16T01:22:50.853Z,99923.05
2023-04-16T01:24:55.810Z,99929.34
2023-04-16T01:27:00.823Z,99933.02
2023-04-16T01:29:05.862Z,99931.77
2023-04-16T01:31:11.284Z,99931.64
2023-04-16T01:33:16.271Z,99932.81
2023-04-16T01:35:21.415Z,99933.8
2023-04-16T01:37:26.381Z,99934.2
2023-04-16T01:39:31.337Z,99934.78
2023-04-16T01:41:36.334Z,99936.66
2023-04-16T01:43:41.734Z,99938.81
2023-04-16T01:45:46.754Z,99938.98
2023-04-16T01:47:51.868Z,99940.35
2023-04-16T01:49:56.991Z,99939.92
2023-04-16T01:52:02.078Z,99941.27
2023-04-16T01:54:07.065Z,99944.7
2023-04-16T01:56:12.078Z,99940.66
2023-04-16T01:58:17.156Z,99940.98
2023-04-16T02:00:22.153Z,99944.53
2023-04-16T02:02:27.410Z,99944.48
2023-04-16T02:04:32.652Z,99943.59
2023-04-16T02:06:37.584Z,99943.06
2023-04-16T02:08:42.588Z,99943.34
2023-04-16T02:10:47.564Z,99943.23
2023-04-16T02:12:52.541Z,99956.22
2023-04-16T02:14:57.500Z,99957.75
2023-04-16T02:17:02.509Z,99947.93
2023-04-16T02:19:07.675Z,99953.93
2023-04-16T02:21:13.236Z,99953.73
2023-04-16T02:23:18.242Z,99951.6
2023-04-16T02:27:11.592Z,99956
2023-04-16T02:29:16.705Z,99955.16
2023-04-16T02:31:21.890Z,99955.3
2023-04-16T02:33:26.968Z,99957.02
2023-04-16T02:35:31.948Z,99960.48
2023-04-16T02:37:36.998Z,99961.81
2023-04-16T02:39:42.030Z,99962.02
2023-04-16T02:41:47.010Z,99962.23
2023-04-16T02:43:51.979Z,99963.34
2023-04-16T02:45:57.041Z,99966.91
2023-04-16T02:48:02.532Z,99967.25
2023-04-16T02:50:07.759Z,99966.77
2023-04-16T02:52:15.582Z,99971.28
2023-04-16T02:54:20.780Z,99966.67
2023-04-16T02:56:25.754Z,99967.39
2023-04-16T02:58:30.752Z,99973.92
2023-04-16T03:00:35.763Z,99974.45
2023-04-16T03:02:41.022Z,99978.16
2023-04-16T03:04:46.400Z,99981.73
2023-04-16T03:06:51.402Z,99988.11
2023-04-16T03:08:56.398Z,99991.61
2023-04-16T03:11:01.465Z,99989.64
2023-04-16T03:13:06.469Z,99998.69
2023-04-16T03:15:11.456Z,100002.77
2023-04-16T03:17:16.589Z,100001.84
2023-04-16T03:19:21.776Z,100003.08
2023-04-16T03:21:26.791Z,100002.89
2023-04-16T03:23:31.851Z,100004.58
2023-04-16T03:25:36.967Z,100002.61
2023-04-16T03:27:42.081Z,100006.2
2023-04-16T03:29:47.358Z,100010.48
2023-04-16T03:31:52.457Z,100011.99
2023-04-16T03:33:57.517Z,100015.45
2023-04-16T03:36:02.583Z,100015.09
2023-04-16T03:38:07.591Z,100014.44
2023-04-16T03:40:12.574Z,100014.73
2023-04-16T03:42:17.673Z,100017.64
2023-04-16T03:44:22.671Z,100020.41
2023-04-16T03:46:27.768Z,100023.13
2023-04-16T03:48:32.920Z,100026.55
2023-04-16T03:50:37.965Z,100030.88
2023-04-16T03:52:43.034Z,100033.09
2023-04-16T03:54:48.085Z,100034.38
2023-04-16T03:56:53.344Z,100037.75
2023-04-16T03:58:58.395Z,100037.26
2023-04-16T04:01:03.415Z,100038.91
2023-04-16T04:03:08.855Z,100040.91
2023-04-16T04:05:14.276Z,100041.7
2023-04-16T04:07:19.287Z,100048.08
2023-04-16T04:09:24.432Z,100046.77
2023-04-16T04:11:29.485Z,100053.3
2023-04-16T04:13:34.614Z,100051.75
2023-04-16T04:15:39.767Z,100051.08
2023-04-16T04:17:45.027Z,100053.64
2023-04-16T04:20:02.243Z,100058.86
2023-04-16T04:22:07.416Z,100059.47
2023-04-16T04:24:12.462Z,100066.48
2023-04-16T04:26:17.680Z,100071.65
2023-04-16T04:28:22.813Z,100072.83
2023-04-16T04:30:27.859Z,100077.23
2023-04-16T04:32:33.018Z,100074.49
2023-04-16T04:34:38.078Z,100076.03
2023-04-16T04:36:43.142Z,100077.28
2023-04-16T04:38:48.160Z,100074.84
2023-04-16T04:40:53.220Z,100079.45
2023-04-16T04:42:58.266Z,100073.04
2023-04-16T04:45:03.291Z,100078.98
2023-04-16T04:47:08.301Z,100078.68
2023-04-16T04:49:13.541Z,100075.2
2023-04-16T04:51:18.562Z,100077.66
2023-04-16T04:53:23.631Z,100080.06
2023-04-16T04:55:29.227Z,100075.02
2023-04-16T04:57:34.316Z,100074.93
2023-04-16T04:59:39.416Z,100081.55
2023-04-16T05:01:44.428Z,100076.61
2023-04-16T05:03:49.826Z,100079.95
2023-04-16T05:05:55.029Z,100080.65
2023-04-16T05:08:00.161Z,100081.39
2023-04-16T05:10:05.239Z,100083.64
2023-04-16T05:12:10.358Z,100086.27
2023-04-16T05:14:15.400Z,100091.75
2023-04-16T05:16:20.590Z,100099.42
2023-04-16T05:18:25.818Z,100103.49
2023-04-16T05:20:30.850Z,100104.49
2023-04-16T05:22:36.005Z,100108.42
2023-04-16T05:24:41.108Z,100111.01
2023-04-16T05:26:46.145Z,100111.53
2023-04-16T05:28:51.181Z,100122.75
2023-04-16T05:30:56.818Z,100124.37
2023-04-16T05:33:02.170Z,100129.03
2023-04-16T05:35:07.210Z,100126.34
2023-04-16T05:37:12.331Z,100125.01
2023-04-16T05:39:17.397Z,100125.82
2023-04-16T05:41:22.461Z,100128.5
2023-04-16T05:43:27.450Z,100132.52
2023-04-16T05:45:32.488Z,100129.48
2023-04-16T05:47:37.578Z,100133.27
2023-04-16T05:49:42.691Z,100137.53
2023-04-16T05:51:48.583Z,100141.66
2023-04-16T05:53:55.116Z,100152.13
2023-04-16T05:56:00.205Z,100150.53
2023-04-16T05:58:05.224Z,100156.05
2023-04-16T06:00:10.274Z,100157.72
2023-04-16T06:02:15.608Z,100160.45
2023-04-16T06:04:21.122Z,100157.61
2023-04-16T06:06:26.371Z,100155.59
2023-04-16T06:08:31.415Z,100161.5
2023-04-16T06:10:36.436Z,100164.78
2023-04-16T06:12:41.482Z,100168.01
2023-04-16T06:14:46.490Z,100175.8
2023-04-16T06:16:51.564Z,100178.48
2023-04-16T06:18:56.646Z,100180.41
2023-04-16T06:21:01.694Z,100189.02
2023-04-16T06:23:06.754Z,100189.73
2023-04-16T06:25:11.772Z,100184.23
2023-04-16T06:27:16.841Z,100188.89
2023-04-16T06:29:33.643Z,100187.67
2023-04-16T06:31:45.811Z,100190.74
2023-04-16T06:33:50.984Z,100185.52
2023-04-16T06:35:56.019Z,100188.72
2023-04-16T06:38:01.080Z,100188.59
2023-04-16T06:40:06.172Z,100190.11
2023-04-16T06:42:11.244Z,100196.06
2023-04-16T06:44:16.277Z,100199
2023-04-16T06:46:21.394Z,100192.38
2023-04-16T06:48:26.530Z,100192.31
2023-04-16T06:50:31.636Z,100196.5
2023-04-16T06:52:36.789Z,100195.27
2023-04-16T06:54:41.808Z,100194.22
2023-04-16T06:56:46.870Z,100198.91
2023-04-16T06:58:51.848Z,100197.97
2023-04-16T07:00:56.966Z,100197.34
2023-04-16T07:03:02.507Z,100198.44
2023-04-16T07:05:08.090Z,100202.05
2023-04-16T07:07:13.212Z,100200.83
2023-04-16T07:09:18.287Z,100209.88
2023-04-16T07:11:23.340Z,100210.01
2023-04-16T07:13:28.368Z,100214.03
2023-04-16T07:15:33.382Z,100216.75
2023-04-16T07:17:38.514Z,100219.86
2023-04-16T07:19:43.711Z,100220.38
2023-04-16T07:21:48.744Z,100224.7
2023-04-16T07:23:53.754Z,100224.72
2023-04-16T07:25:58.854Z,100224.02
2023-04-16T07:28:03.895Z,100227.81
2023-04-16T07:30:08.950Z,100230.08
2023-04-16T07:32:16.511Z,100232.53
2023-04-16T07:34:21.811Z,100229.76
2023-04-16T07:36:26.931Z,100229.51
2023-04-16T07:38:32.046Z,100229.22
2023-04-16T07:40:37.068Z,100235.31
2023-04-16T07:42:42.222Z,100248.63
2023-04-16T07:44:47.226Z,100244.88
2023-04-16T07:46:52.410Z,100249.47
2023-04-16T07:48:57.813Z,100257.2
2023-04-16T07:51:02.890Z,100249.97
2023-04-16T07:53:08.025Z,100248.72
2023-04-16T07:55:13.063Z,100251.81
2023-04-16T07:57:18.063Z,100249.02
2023-04-16T07:59:25.746Z,100252.69
2023-04-16T08:01:31.710Z,100254.57
2023-04-16T08:03:37.269Z,100251.86
2023-04-16T08:05:42.886Z,100257.64
2023-04-16T08:07:47.938Z,100260.84
2023-04-16T08:09:53.039Z,100253.1
2023-04-16T08:11:58.117Z,100252.42
2023-04-16T08:14:03.206Z,100252.14
2023-04-16T08:16:08.357Z,100255.64
2023-04-16T08:18:13.510Z,100253.33
2023-04-16T08:20:20.657Z,100252
2023-04-16T08:22:25.683Z,100261.91
2023-04-16T08:24:30.809Z,100256.91
2023-04-16T08:26:35.970Z,100255.16
2023-04-16T08:28:40.961Z,100264.61
2023-04-16T08:30:45.946Z,100265.17
2023-04-16T08:32:51.597Z,100265.98
2023-04-16T08:34:56.687Z,100264.85
2023-04-16T08:37:01.773Z,100265.6
2023-04-16T08:39:06.750Z,100269.09
2023-04-16T08:41:12.041Z,100264.86
2023-04-16T08:43:17.219Z,100271.16
2023-04-16T08:45:22.283Z,100279.47
2023-04-16T08:47:27.397Z,100275.48
2023-04-16T08:49:32.511Z,100271.81
2023-04-16T08:51:37.570Z,100272.25
2023-04-16T08:53:42.629Z,100274.85
2023-04-16T08:55:47.660Z,100275.13
2023-04-16T08:57:52.704Z,100277.66
2023-04-16T08:59:57.747Z,100284.65
2023-04-16T09:02:03.083Z,100284.92
2023-04-16T09:04:08.769Z,100290.13
2023-04-16T09:06:14.157Z,100288.5
2023-04-16T09:08:19.170Z,100288.13
2023-04-16T09:10:24.250Z,100289.41
2023-04-16T09:12:29.411Z,100289.13
2023-04-16T09:14:34.475Z,100287.73
2023-04-16T09:16:40.052Z,100286.39
2023-04-16T09:18:45.310Z,100290.87
2023-04-16T09:20:50.432Z,100294.78
2023-04-16T09:22:55.496Z,100295.08
2023-04-16T09:25:00.551Z,100294.25
2023-04-16T09:27:05.668Z,100298.19
2023-04-16T09:29:11.586Z,100295.18
2023-04-16T09:31:17.057Z,100294.95
2023-04-16T09:33:22.547Z,100299.19
2023-04-16T09:35:27.933Z,100297.56
2023-04-16T09:37:33.034Z,100296.99
2023-04-16T09:39:38.123Z,100299.89
2023-04-16T09:41:43.236Z,100295.75
2023-04-16T09:43:48.243Z,100301.23
2023-04-16T09:45:53.444Z,100303.03
2023-04-16T09:47:58.758Z,100307.88
2023-04-16T09:50:03.916Z,100309.33
2023-04-16T09:52:09.021Z,100303.52
2023-04-16T09:54:14.096Z,100305.45
2023-04-16T09:56:19.159Z,100306.17
2023-04-16T09:58:24.240Z,100309.25
2023-04-16T10:00:29.280Z,100307.56
2023-04-16T10:02:34.727Z,100313.13
2023-04-16T10:04:40.173Z,100317.03
2023-04-16T10:06:45.499Z,100311.76
2023-04-16T10:08:51.673Z,100312.99
2023-04-16T10:10:56.741Z,100313.33
2023-04-16T10:13:01.766Z,100314.92
2023-04-16T10:15:06.840Z,100309.03
2023-04-16T10:17:12.069Z,100311.63
2023-04-16T10:19:17.205Z,100314.02
2023-04-16T10:21:22.376Z,100314.95
2023-04-16T10:23:27.440Z,100315.25
2023-04-16T10:25:32.518Z,100309.89
2023-04-16T10:27:37.658Z,100309.16
2023-04-16T10:29:42.779Z,100315.94
2023-04-16T10:31:47.877Z,100311.26
2023-04-16T10:33:52.909Z,100311.13
2023-04-16T10:36:08.658Z,100309.95
2023-04-16T10:38:13.801Z,100310.16
2023-04-16T10:40:19.003Z,100311.45
2023-04-16T10:42:24.131Z,100308.02
2023-04-16T10:44:29.143Z,100310.73
2023-04-16T10:46:34.370Z,100311.77
2023-04-16T10:48:50.881Z,100311.64
2023-04-16T10:50:56.075Z,100312.07
2023-04-16T10:53:01.196Z,100309.86
2023-04-16T10:55:06.236Z,100315.78
2023-04-16T10:57:11.281Z,100315.08
2023-04-16T10:59:16.301Z,100312.09
2023-04-16T11:01:21.434Z,100316.13
2023-04-16T11:03:26.870Z,100316.04
2023-04-16T11:05:32.244Z,100317.05
2023-04-16T11:07:37.395Z,100317.14
2023-04-16T11:09:42.428Z,100317.68
2023-04-16T11:11:47.480Z,100315.93
2023-04-16T11:13:52.531Z,100316.68
2023-04-16T11:15:57.821Z,100313.73
2023-04-16T11:18:03.147Z,100312.23
2023-04-16T11:20:21.510Z,100314.02
2023-04-16T11:22:26.925Z,100312.69
2023-04-16T11:24:32.081Z,100313.46
2023-04-16T11:26:37.157Z,100311.59
2023-04-16T11:28:42.192Z,100313.39
2023-04-16T11:30:47.482Z,100313.17
2023-04-16T11:32:52.714Z,100311.86
2023-04-16T11:34:57.851Z,100319.38
2023-04-16T11:37:02.867Z,100317.95
2023-04-16T11:39:08.021Z,100314.99
2023-04-16T11:41:13.521Z,100320.38
2023-04-16T11:43:18.572Z,100317.86
2023-04-16T11:45:23.710Z,100318.46
2023-04-16T11:47:29.038Z,100318.38
2023-04-16T11:49:34.499Z,100318.87
2023-04-16T11:51:39.544Z,100313.53
2023-04-16T11:53:44.611Z,100313.81
2023-04-16T11:55:49.698Z,100315.5
2023-04-16T11:57:54.851Z,100313.81
2023-04-16T12:00:05.022Z,100316.45
2023-04-16T12:02:13.238Z,100317.7
2023-04-16T12:04:18.957Z,100317.67
2023-04-16T12:06:25.686Z,100317.19
2023-04-16T12:08:30.787Z,100316.64
2023-04-16T12:10:35.880Z,100318.27
2023-04-16T12:12:41.013Z,100316.3
2023-04-16T12:14:46.102Z,100321.51
2023-04-16T12:16:51.277Z,100319.38
2023-04-16T12:18:56.729Z,100316.2
2023-04-16T12:21:01.782Z,100313.47
2023-04-16T12:23:06.917Z,100312.34
2023-04-16T12:25:12.040Z,100316.04
2023-04-16T12:27:17.331Z,100313.13
2023-04-16T12:29:22.404Z,100312.53
2023-04-16T12:31:27.616Z,100313.92
2023-04-16T12:33:32.933Z,100310.31
2023-04-16T12:35:38.073Z,100309.7
2023-04-16T12:37:43.092Z,100309.05
2023-04-16T12:39:49.351Z,100308.73
2023-04-16T12:41:54.415Z,100307.84
2023-04-16T12:43:59.469Z,100301.11
2023-04-16T12:46:05.837Z,100310.17
2023-04-16T12:48:11.021Z,100305.3
2023-04-16T12:50:16.076Z,100307.45
2023-04-16T12:52:23.832Z,100306.84
2023-04-16T12:54:28.952Z,100302.95
2023-04-16T12:56:34.096Z,100301.02
2023-04-16T12:58:39.180Z,100302.7
2023-04-16T13:00:44.244Z,100302.92
2023-04-16T13:02:49.633Z,100301.34
2023-04-16T13:04:55.144Z,100298.44
2023-04-16T13:07:00.219Z,100301.37
2023-04-16T13:09:05.266Z,100305.39
2023-04-16T13:11:10.354Z,100304.34
2023-04-16T13:13:15.395Z,100300.19
2023-04-16T13:15:20.421Z,100306.58
2023-04-16T13:17:25.584Z,100306.91
2023-04-16T13:19:30.966Z,100303.48
2023-04-16T13:21:36.126Z,100303.08
2023-04-16T13:23:41.137Z,100301.91
2023-04-16T13:25:46.200Z,100303.73
2023-04-16T13:27:54.414Z,100302.13
2023-04-16T13:29:59.486Z,100301.09
2023-04-16T13:32:04.631Z,100302.12
2023-04-16T13:34:09.678Z,100302.91
2023-04-16T13:36:14.812Z,100304.25
2023-04-16T13:38:19.880Z,100300.56
2023-04-16T13:40:25.073Z,100300.83
2023-04-16T13:42:30.096Z,100296.13
2023-04-16T13:44:35.242Z,100296.23
2023-04-16T13:46:40.454Z,100294.89
2023-04-16T13:48:45.608Z,100297.24
2023-04-16T13:50:50.679Z,100293.61
2023-04-16T13:52:55.717Z,100289.89
2023-04-16T13:55:01.545Z,100291.45
2023-04-16T13:57:06.647Z,100292.61
2023-04-16T13:59:12.183Z,100293.87
2023-04-16T14:01:17.687Z,100293.72
2023-04-16T14:03:23.125Z,100295.45
2023-04-16T14:05:28.623Z,100298
2023-04-16T14:07:33.682Z,100299.83
2023-04-16T14:09:38.729Z,100296.73
2023-04-16T14:11:43.796Z,100294.64
2023-04-16T14:13:48.857Z,100293.13
2023-04-16T14:15:54.037Z,100292.98
2023-04-16T14:17:59.201Z,100293.18
2023-04-16T14:20:06.375Z,100289.77
2023-04-16T14:22:14.295Z,100292.2
2023-04-16T14:24:19.317Z,100289.06
2023-04-16T14:26:24.447Z,100291.34
2023-04-16T14:28:29.513Z,100291.81
2023-04-16T14:30:35.909Z,100289.79
2023-04-16T14:32:41.102Z,100289.25
2023-04-16T14:34:48.870Z,100289.11
2023-04-16T14:36:53.986Z,100287.91
2023-04-16T14:39:01.565Z,100285.3
2023-04-16T14:41:09.507Z,100283.36
2023-04-16T14:43:19.674Z,100285.38
2023-04-16T14:45:26.997Z,100290.85
2023-04-16T14:47:38.033Z,100289.52
2023-04-16T14:49:55.369Z,100295.84
2023-04-16T14:52:09.382Z,100295.38
2023-04-16T14:54:16.642Z,100296.77
2023-04-16T14:56:21.698Z,100296.5
2023-04-16T14:58:29.793Z,100294.51
2023-04-16T15:00:34.916Z,100297.56
2023-04-16T15:02:43.042Z,100302.73
2023-04-16T15:04:50.632Z,100299.25
2023-04-16T15:06:59.912Z,100296.41
2023-04-16T15:09:08.976Z,100297.61
2023-04-16T15:11:14.456Z,100298
2023-04-16T15:13:21.847Z,100299.64
2023-04-16T15:15:26.885Z,100300.86
2023-04-16T15:17:34.646Z,100303.09
2023-04-16T15:19:39.792Z,100303.75
2023-04-16T15:21:46.046Z,100303.02
2023-04-16T15:24:06.038Z,100307.03
2023-04-16T15:26:11.101Z,100303.7
2023-04-16T15:28:16.166Z,100305.17
2023-04-16T15:30:23.640Z,100305.94
2023-04-16T15:32:28.696Z,100307.7
2023-04-16T15:34:33.820Z,100305.7
2023-04-16T15:36:38.925Z,100312.59
2023-04-16T15:38:43.993Z,100309.4
2023-04-16T15:40:49.084Z,100311.11
2023-04-16T15:42:54.089Z,100312.41
2023-04-16T15:44:59.235Z,100315.58
2023-04-16T15:47:04.506Z,100313.16
2023-04-16T15:49:10.053Z,100312.41
2023-04-16T15:51:15.380Z,100315.67
2023-04-16T15:53:23.204Z,100319.23
2023-04-16T15:55:28.264Z,100314.98
2023-04-16T15:57:33.330Z,100320.18
2023-04-16T15:59:40.756Z,100318.66
2023-04-16T16:01:57.300Z,100324.89
2023-04-16T16:04:05.683Z,100326.84
2023-04-16T16:06:11.434Z,100324.23
2023-04-16T16:08:16.468Z,100328.52
2023-04-16T16:10:24.118Z,100322.75
2023-04-16T16:12:29.227Z,100327.53
2023-04-16T16:14:34.256Z,100323.6
2023-04-16T16:16:39.420Z,100326.59
2023-04-16T16:18:44.582Z,100325.73
2023-04-16T16:20:49.799Z,100328.66
2023-04-16T16:22:54.897Z,100329.28
2023-04-16T16:24:59.966Z,100327.3
2023-04-16T16:27:05.079Z,100333.88
2023-04-16T16:29:10.504Z,100335.97
2023-04-16T16:31:16.078Z,100340.91
2023-04-16T16:33:21.217Z,100339.5
2023-04-16T16:35:26.258Z,100342.92
2023-04-16T16:37:31.335Z,100341.47
2023-04-16T16:39:39.555Z,100345.03
2023-04-16T16:41:44.589Z,100348.66
2023-04-16T16:43:49.804Z,100352.59
2023-04-16T16:45:54.873Z,100353.6
2023-04-16T16:47:59.997Z,100354.35
2023-04-16T16:50:05.255Z,100350.98
2023-04-16T16:52:10.359Z,100354.54
2023-04-16T16:54:15.417Z,100358.11
2023-04-16T16:56:20.532Z,100365.38
2023-04-16T16:58:25.612Z,100362.55
2023-04-16T17:00:30.640Z,100366.08
2023-04-16T17:02:36.225Z,100370.6
2023-04-16T17:04:41.832Z,100375.2
2023-04-16T17:06:47.216Z,100379.13
2023-04-16T17:08:52.415Z,100384.03
2023-04-16T17:10:57.570Z,100384.46
2023-04-16T17:13:02.628Z,100391.58
2023-04-16T17:15:07.667Z,100394.34
2023-04-16T17:17:12.755Z,100394.96
2023-04-16T17:19:17.881Z,100392.46
2023-04-16T17:21:22.998Z,100396.78
2023-04-16T17:23:28.128Z,100402.18
2023-04-16T17:25:33.237Z,100406.74
2023-04-16T17:27:40.920Z,100404.58
2023-04-16T17:29:46.075Z,100412.19
2023-04-16T17:31:51.236Z,100413.23
2023-04-16T17:33:56.549Z,100416.87
2023-04-16T17:36:01.676Z,100418.52
2023-04-16T17:38:06.752Z,100415.39
2023-04-16T17:40:11.842Z,100419.19
2023-04-16T17:42:17.025Z,100423.6
2023-04-16T17:44:22.162Z,100418.98
2023-04-16T17:46:27.375Z,100417.57
2023-04-16T17:48:32.516Z,100425.56
2023-04-16T17:50:40.643Z,100422.36
2023-04-16T17:52:45.786Z,100430.13
2023-04-16T17:54:50.865Z,100429.78
2023-04-16T17:56:55.944Z,100434.11
2023-04-16T17:59:00.990Z,100439.8
2023-04-16T18:01:06.206Z,100438.55
2023-04-16T18:03:11.626Z,100443.41
2023-04-16T18:05:16.891Z,100448.02
2023-04-16T18:07:21.944Z,100444.46
2023-04-16T18:09:27.187Z,100459
2023-04-16T18:11:32.500Z,100456.16
2023-04-16T18:13:37.604Z,100456.67
2023-04-16T18:15:42.740Z,100458.12
2023-04-16T18:17:47.983Z,100461.52
2023-04-16T18:19:53.209Z,100461.19
2023-04-16T18:21:58.263Z,100459.64
2023-04-16T18:24:03.362Z,100461.92
2023-04-16T18:26:11.017Z,100471.55
2023-04-16T18:28:16.783Z,100477.58
2023-04-16T18:30:28.289Z,100480.03
2023-04-16T18:32:34.493Z,100479.12
2023-04-16T18:34:41.526Z,100480.88
2023-04-16T18:36:46.657Z,100484.26
2023-04-16T18:39:02.981Z,100485.16
2023-04-16T18:41:08.094Z,100489.75
2023-04-16T18:43:13.328Z,100485.63
2023-04-16T18:45:23.256Z,100486.05
2023-04-16T18:47:28.403Z,100487.2
2023-04-16T18:49:33.465Z,100491.81
2023-04-16T18:51:38.681Z,100496.09
2023-04-16T18:53:43.782Z,100495.48
2023-04-16T18:55:48.814Z,100496.46
2023-04-16T18:57:53.915Z,100497.08
2023-04-16T18:59:59.044Z,100497.92
2023-04-16T19:02:04.110Z,100498.2
2023-04-16T19:04:09.406Z,100497.64
2023-04-16T19:06:14.784Z,100500.22
2023-04-16T19:08:19.920Z,100506.2
2023-04-16T19:10:25.028Z,100503.88
2023-04-16T19:12:30.244Z,100503.27
2023-04-16T19:14:35.371Z,100504.29
2023-04-16T19:16:40.844Z,100509.49
2023-04-16T19:18:46.209Z,100509.25
2023-04-16T19:20:51.436Z,100511.14
2023-04-16T19:22:56.600Z,100514.1
2023-04-16T19:25:01.807Z,100516.13
2023-04-16T19:27:06.888Z,100517.87
2023-04-16T19:29:12.456Z,100522.14
2023-04-16T19:31:17.661Z,100515.45
2023-04-16T19:33:22.859Z,100520.41
2023-04-16T19:35:28.009Z,100515.44
2023-04-16T19:37:33.079Z,100515.09
2023-04-16T19:39:38.120Z,100516.28
2023-04-16T19:41:43.196Z,100526.8
2023-04-16T19:43:48.208Z,100529.2
2023-04-16T19:45:53.554Z,100538.26
2023-04-16T19:47:58.871Z,100536.94
2023-04-16T19:50:03.998Z,100536.55
2023-04-16T19:52:09.042Z,100538.74
2023-04-16T19:54:14.192Z,100541.14
2023-04-16T19:56:19.267Z,100535.11
2023-04-16T19:58:24.340Z,100536.92
2023-04-16T20:00:29.464Z,100540.09
2023-04-16T20:02:34.881Z,100537.59
2023-04-16T20:04:40.164Z,100536.29
2023-04-16T20:06:45.245Z,100537.53
2023-04-16T20:08:50.289Z,100536.17
2023-04-16T20:10:55.354Z,100530.62
2023-04-16T20:13:00.482Z,100535.75
2023-04-16T20:15:05.617Z,100530.17
2023-04-16T20:17:11.095Z,100526.94
2023-04-16T20:19:19.285Z,100531.67
2023-04-16T20:21:24.322Z,100528.13
2023-04-16T20:23:29.426Z,100529.13
2023-04-16T20:25:34.481Z,100533.86
2023-04-16T20:27:39.916Z,100536.09
2023-04-16T20:29:45.151Z,100535.51
2023-04-16T20:31:50.243Z,100533.75
2023-04-16T20:33:55.319Z,100533.59
2023-04-16T20:36:00.420Z,100535.19
2023-04-16T20:38:05.461Z,100532.03
2023-04-16T20:40:10.586Z,100537
2023-04-16T20:42:15.664Z,100533.53
2023-04-16T20:44:20.740Z,100530.56
2023-04-16T20:46:25.901Z,100524.53
2023-04-16T20:48:31.022Z,100524.3
2023-04-16T20:50:36.099Z,100526.92
2023-04-16T20:52:41.126Z,100525.67
2023-04-16T20:54:46.290Z,100523.78
2023-04-16T20:56:51.329Z,100528.84
2023-04-16T20:58:56.393Z,100525.89
2023-04-16T21:01:01.480Z,100524.84
2023-04-16T21:03:06.915Z,100526.95
2023-04-16T21:05:12.270Z,100529.55
2023-04-16T21:07:17.374Z,100531.84
2023-04-16T21:09:22.976Z,100529.61
2023-04-16T21:11:28.031Z,100530.81
2023-04-16T21:13:33.049Z,100532.2
2023-04-16T21:15:38.120Z,100535.36
2023-04-16T21:17:43.325Z,100537.94
2023-04-16T21:19:48.532Z,100541.3
2023-04-16T21:21:53.750Z,100539.56
2023-04-16T21:23:58.796Z,100539.27
2023-04-16T21:26:03.828Z,100537.03
2023-04-16T21:28:08.930Z,100535.48
2023-04-16T21:30:14.055Z,100537.33
2023-04-16T21:32:19.097Z,100530.3
2023-04-16T21:34:24.260Z,100535.94
2023-04-16T21:36:29.357Z,100541.63
2023-04-16T21:38:34.460Z,100536.24
2023-04-16T21:40:40.041Z,100536.45
2023-04-16T21:42:45.130Z,100540.16
2023-04-16T21:44:50.336Z,100537.74
2023-04-16T21:46:55.512Z,100541.53
2023-04-16T21:49:00.789Z,100536.42
2023-04-16T21:51:05.852Z,100535.04
2023-04-16T21:53:11.039Z,100539.51
2023-04-16T21:55:16.350Z,100542.17
2023-04-16T21:57:21.520Z,100540.6
2023-04-16T21:59:26.655Z,100544.34
2023-04-16T22:01:31.812Z,100546.69
2023-04-16T22:03:37.452Z,100542.38
2023-04-16T22:05:44.272Z,100547.05
2023-04-16T22:07:49.326Z,100542.66
2023-04-16T22:09:54.404Z,100536.41
2023-04-16T22:11:59.511Z,100535.87
2023-04-16T22:14:04.642Z,100530.68
2023-04-16T22:16:12.564Z,100532.27
2023-04-16T22:18:17.757Z,100532.32
2023-04-16T22:20:22.815Z,100530.13
2023-04-16T22:22:27.905Z,100526.77
2023-04-16T22:24:33.154Z,100525.88
2023-04-16T22:26:38.229Z,100530.03
2023-04-16T22:28:43.318Z,100530.47
2023-04-16T22:30:48.352Z,100527.07
2023-04-16T22:32:53.506Z,100526.84
2023-04-16T22:34:58.728Z,100526.08
2023-04-16T22:37:03.821Z,100527.08
2023-04-16T22:39:08.962Z,100527.28
2023-04-16T22:41:14.531Z,100529.42
2023-04-16T22:43:19.677Z,100526.64
2023-04-16T22:45:24.690Z,100522.7
2023-04-16T22:47:29.845Z,100524.58
2023-04-16T22:49:34.959Z,100527.84
2023-04-16T22:51:39.999Z,100526.22
2023-04-16T22:53:45.020Z,100530.58
2023-04-16T22:55:50.143Z,100532.7
2023-04-16T22:57:55.231Z,100530.13
2023-04-16T23:00:00.289Z,100528.66
2023-04-16T23:02:05.528Z,100528.77
2023-04-16T23:04:10.918Z,100529.54
2023-04-16T23:06:16.063Z,100530.17
2023-04-16T23:08:21.085Z,100532.84
2023-04-16T23:10:26.095Z,100530.45
2023-04-16T23:12:31.160Z,100528.31
2023-04-16T23:14:36.201Z,100532.33
2023-04-16T23:16:41.290Z,100528.72
2023-04-16T23:18:46.417Z,100531.85
2023-04-16T23:20:51.456Z,100530.07
2023-04-16T23:22:56.576Z,100530.01
2023-04-16T23:25:01.658Z,100525.27
2023-04-16T23:27:06.840Z,100528.66
2023-04-16T23:29:12.698Z,100532.83
2023-04-16T23:31:18.171Z,100535.54
2023-04-16T23:33:23.310Z,100533.81
2023-04-16T23:35:28.367Z,100534.97
2023-04-16T23:37:33.426Z,100535.27
2023-04-16T23:39:38.488Z,100533.24
2023-04-16T23:41:43.662Z,100534.97
2023-04-16T23:43:48.690Z,100534.41
2023-04-16T23:45:53.863Z,100536.92
2023-04-16T23:47:59.205Z,100534.28
2023-04-16T23:50:04.461Z,100534
2023-04-16T23:52:09.549Z,100532.23
2023-04-16T23:54:14.677Z,100531.89
2023-04-16T23:56:19.758Z,100526.53
2023-04-16T23:58:24.934Z,100523.03
